createdAt,value
2023-05-08T00:00:44.168Z,86269.02
2023-05-08T00:01:46.937Z,85457.73
2023-05-08T00:02:50.029Z,88594.69
2023-05-08T00:03:53.638Z,92206.61
2023-05-08T00:04:57.081Z,90418.95
2023-05-08T00:06:00.175Z,80783.12
2023-05-08T00:07:03.457Z,81234.20
2023-05-08T00:08:06.438Z,74900.66
2023-05-08T00:09:09.103Z,62746.74
2023-05-08T00:10:12.391Z,68779.33
2023-05-08T00:11:15.572Z,77388.11
2023-05-08T00:12:18.449Z,75817.65
2023-05-08T00:13:21.659Z,76551.39
2023-05-08T00:14:24.608Z,73867.03
2023-05-08T00:15:27.373Z,73051.19
2023-05-08T00:16:31.316Z,69514.80
2023-05-08T00:17:34.333Z,69953.54
2023-05-08T00:18:37.237Z,68299.48
2023-05-08T00:19:40.215Z,74298.17
2023-05-08T00:20:43.189Z,75955.72
2023-05-08T00:21:46.269Z,71794.53
2023-05-08T00:22:49.552Z,67944.42
2023-05-08T00:23:52.525Z,64089.99
2023-05-08T00:24:55.716Z,61698.18
2023-05-08T00:25:58.684Z,57836.75
2023-05-08T00:27:01.775Z,60607.72
2023-05-08T00:28:04.653Z,54601.54
2023-05-08T00:29:07.516Z,56689.18
2023-05-08T00:30:10.713Z,54061.25
2023-05-08T00:31:13.678Z,63643.86
2023-05-08T00:32:16.811Z,62332.91
2023-05-08T00:33:19.537Z,54054.24
2023-05-08T00:34:22.309Z,52797.55
2023-05-08T00:35:25.163Z,55636.20
2023-05-08T00:36:28.036Z,50840.14
2023-05-08T00:37:31.037Z,50155.18
2023-05-08T00:38:34.096Z,50574.76
2023-05-08T00:39:37.123Z,52875.70
2023-05-08T00:40:40.578Z,56248.89
2023-05-08T00:41:43.550Z,54767.95
2023-05-08T00:42:47.132Z,54871.20
2023-05-08T00:43:50.012Z,55392.54
2023-05-08T00:44:53.085Z,52905.76
2023-05-08T00:45:56.210Z,53291.56
2023-05-08T00:46:59.157Z,49466.33
2023-05-08T00:48:02.697Z,51150.62
2023-05-08T00:49:05.720Z,50574.76
2023-05-08T00:50:08.703Z,52923.80
2023-05-08T00:51:11.681Z,56594.90
2023-05-08T00:52:14.754Z,54639.63
2023-05-08T00:53:18.557Z,50644.86
2023-05-08T00:54:21.630Z,53488.98
2023-05-08T00:55:24.807Z,53500.00
2023-05-08T00:56:27.782Z,53200.37
2023-05-08T00:57:30.668Z,52278.55
2023-05-08T00:58:33.842Z,56352.19
2023-05-08T00:59:36.735Z,57101.42
2023-05-08T01:00:39.888Z,56136.58
2023-05-08T01:01:42.912Z,57802.63
2023-05-08T01:02:47.296Z,50605.80
2023-05-08T01:03:51.242Z,52566.09
2023-05-08T01:04:54.278Z,54194.57
2023-05-08T01:05:57.361Z,52015.07
2023-05-08T01:07:00.416Z,51501.18
2023-05-08T01:08:03.401Z,47931.87
2023-05-08T01:09:06.579Z,49912.87
2023-05-08T01:10:09.594Z,52519.00
2023-05-08T01:11:12.533Z,52071.17
2023-05-08T01:12:15.533Z,49390.25
2023-05-08T01:13:18.729Z,50113.12
2023-05-08T01:14:22.287Z,50892.22
2023-05-08T01:15:25.379Z,49372.23
2023-05-08T01:16:28.625Z,51727.57
2023-05-08T01:17:31.866Z,50609.80
2023-05-08T01:18:35.019Z,49484.36
2023-05-08T01:19:38.197Z,49007.84
2023-05-08T01:20:41.374Z,49873.82
2023-05-08T01:21:44.580Z,49940.91
2023-05-08T01:22:47.445Z,49837.78
2023-05-08T01:23:50.000Z,50934.29
2023-05-08T01:24:52.973Z,53059.07
2023-05-08T01:25:56.429Z,53630.29
2023-05-08T01:26:59.335Z,53783.62
2023-05-08T01:28:02.105Z,54377.00
2023-05-08T01:29:04.880Z,54457.19
2023-05-08T01:30:08.281Z,54124.40
2023-05-08T01:31:10.936Z,54181.54
2023-05-08T01:32:13.723Z,53478.96
2023-05-08T01:33:16.662Z,57763.51
2023-05-08T01:34:19.568Z,59242.57
2023-05-08T01:35:22.549Z,56196.75
2023-05-08T01:36:25.438Z,56198.75
2023-05-08T01:37:28.096Z,54518.34
2023-05-08T01:38:30.984Z,53844.76
2023-05-08T01:39:33.731Z,54554.42
2023-05-08T01:40:36.725Z,55466.74
2023-05-08T01:41:39.614Z,53186.34
2023-05-08T01:42:42.666Z,53491.98
2023-05-08T01:43:45.497Z,51541.25
2023-05-08T01:44:48.731Z,51446.09
2023-05-08T01:45:51.900Z,53633.29
2023-05-08T01:46:55.010Z,56326.12
2023-05-08T01:47:57.974Z,55347.43
2023-05-08T01:49:01.038Z,55234.13
2023-05-08T01:50:04.021Z,58504.98
2023-05-08T01:51:07.194Z,55300.30
2023-05-08T01:52:10.074Z,57484.62
2023-05-08T01:53:13.467Z,53738.52
2023-05-08T01:54:17.469Z,53644.32
2023-05-08T01:55:20.335Z,53306.59
2023-05-08T01:56:23.866Z,54087.32
2023-05-08T01:57:27.926Z,53354.69
2023-05-08T01:58:30.900Z,52380.74
2023-05-08T01:59:33.479Z,51280.82
2023-05-08T02:00:36.246Z,52822.59
2023-05-08T02:01:39.225Z,52975.91
2023-05-08T02:02:42.012Z,53142.25
2023-05-08T02:03:44.783Z,54032.19
2023-05-08T02:04:47.434Z,52989.93
2023-05-08T02:05:50.316Z,52580.12
2023-05-08T02:06:53.293Z,52310.61
2023-05-08T02:07:55.965Z,53254.48
2023-05-08T02:08:58.643Z,52284.56
2023-05-08T02:10:01.293Z,53044.04
2023-05-08T02:11:04.071Z,55390.54
2023-05-08T02:12:07.354Z,53000.95
2023-05-08T02:13:09.994Z,53402.79
2023-05-08T02:14:12.697Z,53694.43
2023-05-08T02:15:15.582Z,53937.97
2023-05-08T02:16:18.378Z,54729.85
2023-05-08T02:17:21.435Z,57115.46
2023-05-08T02:18:24.499Z,56001.20
2023-05-08T02:19:27.480Z,54263.73
2023-05-08T02:20:30.559Z,55752.51
2023-05-08T02:21:33.838Z,52228.46
2023-05-08T02:22:37.591Z,52297.59
2023-05-08T02:23:40.621Z,51042.45
2023-05-08T02:24:43.280Z,50370.47
2023-05-08T02:25:46.156Z,53259.49
2023-05-08T02:26:49.243Z,51010.40
2023-05-08T02:27:54.184Z,52983.92
2023-05-08T02:28:57.241Z,52245.49
2023-05-08T02:30:00.282Z,48532.38
2023-05-08T02:31:04.115Z,49996.98
2023-05-08T02:32:08.092Z,50631.84
2023-05-08T02:33:11.028Z,53569.15
2023-05-08T02:34:13.659Z,54561.44
2023-05-08T02:35:16.451Z,54784.99
2023-05-08T02:36:19.056Z,54348.93
2023-05-08T02:37:21.976Z,54624.59
2023-05-08T02:38:24.659Z,53650.33
2023-05-08T02:39:27.428Z,53978.06
2023-05-08T02:40:30.103Z,54870.20
2023-05-08T02:41:32.792Z,56127.55
2023-05-08T02:42:35.525Z,55770.56
2023-05-08T02:43:38.200Z,56242.88
2023-05-08T02:44:41.068Z,55547.96
2023-05-08T02:45:44.056Z,57112.45
2023-05-08T02:46:47.024Z,57034.21
2023-05-08T02:47:50.004Z,56263.94
2023-05-08T02:48:52.882Z,55720.42
2023-05-08T02:49:55.958Z,56160.64
2023-05-08T02:50:59.150Z,56927.89
2023-05-08T02:52:02.014Z,58063.49
2023-05-08T02:53:04.990Z,57369.25
2023-05-08T02:54:08.192Z,57739.43
2023-05-08T02:55:10.961Z,57782.57
2023-05-08T02:56:13.822Z,58110.64
2023-05-08T02:57:16.802Z,58297.27
2023-05-08T02:58:19.479Z,58357.47
2023-05-08T02:59:22.344Z,57949.11
2023-05-08T03:00:25.130Z,57966.17
2023-05-08T03:01:27.826Z,57640.11
2023-05-08T03:02:30.639Z,57224.80
2023-05-08T03:03:33.570Z,57121.48
2023-05-08T03:04:36.726Z,57171.64
2023-05-08T03:05:39.595Z,56790.48
2023-05-08T03:06:42.376Z,56890.78
2023-05-08T03:07:45.142Z,57016.16
2023-05-08T03:08:48.519Z,56853.67
2023-05-08T03:09:51.604Z,56612.95
2023-05-08T03:10:54.785Z,56650.06
2023-05-08T03:11:57.866Z,56558.79
2023-05-08T03:13:00.651Z,56751.36
2023-05-08T03:14:03.606Z,57197.71
2023-05-08T03:15:06.688Z,57505.68
2023-05-08T03:16:09.828Z,57758.49
2023-05-08T03:17:12.744Z,57376.27
2023-05-08T03:18:16.023Z,57334.14
2023-05-08T03:19:20.834Z,57068.32
2023-05-08T03:20:23.924Z,57600.98
2023-05-08T03:21:26.915Z,57316.09
2023-05-08T03:22:29.893Z,56957.98
2023-05-08T03:23:32.654Z,57316.09
2023-05-08T03:24:35.531Z,56770.42
2023-05-08T03:25:38.664Z,57095.40
2023-05-08T03:26:41.590Z,57407.37
2023-05-08T03:27:44.567Z,57218.78
2023-05-08T03:28:47.539Z,58143.76
2023-05-08T03:29:50.411Z,58270.18
2023-05-08T03:30:53.414Z,57630.08
2023-05-08T03:31:56.272Z,58209.98
2023-05-08T03:32:59.209Z,58062.48
2023-05-08T03:34:02.114Z,57925.03
2023-05-08T03:35:05.091Z,58973.61
2023-05-08T03:36:07.761Z,59317.84
2023-05-08T03:37:10.432Z,59737.38
2023-05-08T03:39:29.498Z,59795.60
2023-05-08T03:40:32.366Z,59949.18
2023-05-08T03:41:35.246Z,59854.82
2023-05-08T03:42:38.111Z,59534.63
2023-05-08T03:43:41.202Z,59249.59
2023-05-08T03:44:43.967Z,59267.66
2023-05-08T03:45:46.946Z,58921.42
2023-05-08T03:48:05.948Z,59967.24
2023-05-08T03:49:08.809Z,59959.21
2023-05-08T03:50:11.902Z,60073.65
2023-05-08T03:51:15.347Z,59804.63
2023-05-08T03:52:18.335Z,60501.30
2023-05-08T03:53:21.198Z,60325.62
2023-05-08T03:54:24.072Z,59845.79
2023-05-08T03:55:27.055Z,60434.04
2023-05-08T03:56:29.834Z,60624.79
2023-05-08T03:57:32.594Z,61163.96
2023-05-08T03:59:46.340Z,61083.63
2023-05-08T04:00:49.550Z,61772.49
2023-05-08T04:01:52.409Z,61910.08
2023-05-08T04:02:55.404Z,61882.96
2023-05-08T04:03:58.376Z,61612.82
2023-05-08T04:06:14.728Z,61347.71
2023-05-08T04:07:17.520Z,61255.33
2023-05-08T04:08:20.190Z,61193.07
2023-05-08T04:09:23.273Z,61590.73
2023-05-08T04:10:26.357Z,61525.45
2023-05-08T04:11:29.323Z,61400.93
2023-05-08T04:12:32.412Z,61267.38
2023-05-08T04:13:35.486Z,61312.57
2023-05-08T04:15:55.260Z,61158.94
2023-05-08T04:16:58.309Z,61210.14
2023-05-08T04:18:01.267Z,61151.91
2023-05-08T04:19:04.149Z,61558.59
2023-05-08T04:20:07.178Z,61763.45
2023-05-08T04:21:10.149Z,61839.78
2023-05-08T04:22:13.368Z,61652.98
2023-05-08T04:23:16.421Z,61353.74
2023-05-08T04:24:19.701Z,61423.02
2023-05-08T04:26:38.353Z,61373.82
2023-05-08T04:27:42.229Z,61342.69
2023-05-08T04:28:45.427Z,61215.16
2023-05-08T04:29:49.020Z,61314.57
2023-05-08T04:30:51.900Z,60959.12
2023-05-08T04:31:55.546Z,61124.80
2023-05-08T04:32:58.628Z,61401.94
2023-05-08T04:34:01.766Z,61525.45
2023-05-08T04:36:20.920Z,61620.85
2023-05-08T04:37:23.583Z,61597.75
2023-05-08T04:38:26.250Z,61751.40
2023-05-08T04:39:28.921Z,61591.73
2023-05-08T04:40:31.700Z,61613.82
2023-05-08T04:41:34.673Z,61235.25
2023-05-08T04:42:37.342Z,60870.77
2023-05-08T04:44:56.106Z,60790.45
2023-05-08T04:45:58.906Z,60608.73
2023-05-08T04:47:02.070Z,60592.66
2023-05-08T04:48:05.595Z,60860.73
2023-05-08T04:49:08.946Z,60968.16
2023-05-08T04:50:11.699Z,60885.83
2023-05-08T04:51:14.372Z,60859.73
2023-05-08T04:52:17.149Z,60727.20
2023-05-08T04:54:30.161Z,60701.09
2023-05-08T04:56:45.955Z,60642.86
2023-05-08T04:57:48.635Z,60564.55
2023-05-08T04:58:51.387Z,60404.93
2023-05-08T04:59:54.068Z,60438.05
2023-05-08T05:00:56.634Z,60261.37
2023-05-08T05:01:59.420Z,60038.52
2023-05-08T05:03:02.240Z,59798.61
2023-05-08T05:04:04.914Z,60638.84
2023-05-08T05:05:07.726Z,60793.46
2023-05-08T05:06:10.485Z,60963.14
2023-05-08T05:07:13.055Z,60533.43
2023-05-08T05:08:15.716Z,60578.61
2023-05-08T05:09:18.395Z,60455.12
2023-05-08T05:10:20.979Z,60497.29
2023-05-08T05:11:23.526Z,60291.48
2023-05-08T05:12:26.205Z,60508.33
2023-05-08T05:13:29.290Z,60553.51
2023-05-08T05:14:32.252Z,60715.15
2023-05-08T05:15:35.143Z,60642.86
2023-05-08T05:16:38.102Z,60837.64
2023-05-08T05:17:41.147Z,60781.41
2023-05-08T05:18:43.747Z,60681.01
2023-05-08T05:19:46.421Z,60808.52
2023-05-08T05:20:49.506Z,60542.46
2023-05-08T05:21:52.371Z,60738.24
2023-05-08T05:22:55.475Z,60915.95
2023-05-08T05:23:58.243Z,60923.98
2023-05-08T05:25:01.101Z,61074.59
2023-05-08T05:26:03.874Z,61109.73
2023-05-08T05:27:06.858Z,60857.72
2023-05-08T05:28:09.929Z,60713.14
2023-05-08T05:29:12.814Z,60841.65
2023-05-08T05:30:15.785Z,60799.48
2023-05-08T05:31:18.632Z,60952.10
2023-05-08T05:32:21.457Z,60837.64
2023-05-08T05:33:24.517Z,60817.55
2023-05-08T05:34:27.288Z,60744.26
2023-05-08T05:35:30.152Z,60812.54
2023-05-08T05:36:32.924Z,60566.56
2023-05-08T05:37:35.921Z,60823.58
2023-05-08T05:38:38.778Z,60840.65
2023-05-08T05:39:41.560Z,60867.76
2023-05-08T05:40:44.212Z,61173.00
2023-05-08T05:41:46.992Z,61188.05
2023-05-08T05:42:49.867Z,61321.61
2023-05-08T05:43:52.991Z,61301.52
2023-05-08T05:44:55.825Z,61349.72
2023-05-08T05:45:58.597Z,61287.46
2023-05-08T05:47:01.189Z,61056.52
2023-05-08T05:48:03.864Z,60978.20
2023-05-08T05:49:06.605Z,61219.18
2023-05-08T05:50:09.319Z,60998.28
2023-05-08T05:51:11.948Z,60895.87
2023-05-08T05:52:14.608Z,60876.79
2023-05-08T05:53:17.394Z,60918.96
2023-05-08T05:54:20.353Z,60960.13
2023-05-08T05:55:23.031Z,60911.93
2023-05-08T05:56:26.002Z,61037.44
2023-05-08T05:57:28.878Z,61211.15
2023-05-08T05:58:31.445Z,60906.91
2023-05-08T05:59:34.424Z,60855.71
2023-05-08T06:00:37.306Z,61024.39
2023-05-08T06:01:40.193Z,60759.32
2023-05-08T06:02:43.228Z,60478.21
2023-05-08T06:03:46.249Z,60883.82
2023-05-08T06:04:49.192Z,60787.43
2023-05-08T06:05:52.077Z,61438.09
2023-05-08T06:06:54.758Z,61567.63
2023-05-08T06:07:57.425Z,61064.55
2023-05-08T06:08:59.983Z,61202.11
2023-05-08T06:10:02.857Z,61590.73
2023-05-08T06:11:05.629Z,61663.03
2023-05-08T06:12:08.311Z,61531.48
2023-05-08T06:13:10.917Z,61583.70
2023-05-08T06:14:13.549Z,61462.19
2023-05-08T06:15:16.233Z,61514.40
2023-05-08T06:16:18.942Z,61009.33
2023-05-08T06:17:21.614Z,60745.27
2023-05-08T06:18:24.214Z,60591.66
2023-05-08T06:19:26.990Z,60981.21
2023-05-08T06:20:30.082Z,61090.66
2023-05-08T06:21:32.853Z,61307.55
2023-05-08T06:22:35.713Z,61419.01
2023-05-08T06:23:39.011Z,61107.73
2023-05-08T06:24:41.775Z,60784.42
2023-05-08T06:25:44.857Z,60815.55
2023-05-08T06:26:47.730Z,60850.69
2023-05-08T06:27:51.016Z,60829.61
2023-05-08T06:28:53.895Z,60649.89
2023-05-08T06:29:56.762Z,60894.87
2023-05-08T06:30:59.858Z,60973.18
2023-05-08T06:32:02.944Z,60696.07
2023-05-08T06:33:05.923Z,60488.25
2023-05-08T06:34:08.773Z,60201.14
2023-05-08T06:35:11.749Z,59918.06
2023-05-08T06:36:14.451Z,59649.05
2023-05-08T06:37:17.091Z,59748.42
2023-05-08T06:38:19.859Z,59750.43
2023-05-08T06:39:22.432Z,59939.14
2023-05-08T06:40:24.994Z,60087.70
2023-05-08T06:41:28.091Z,60136.89
2023-05-08T06:42:30.755Z,60007.40
2023-05-08T06:43:33.522Z,59782.55
2023-05-08T06:44:36.192Z,59763.48
2023-05-08T06:45:38.967Z,59562.73
2023-05-08T06:46:42.221Z,59195.39
2023-05-08T06:47:45.163Z,58969.59
2023-05-08T06:48:48.001Z,58748.82
2023-05-08T06:49:50.889Z,58272.18
2023-05-08T06:50:53.743Z,58282.22
2023-05-08T06:51:58.134Z,58416.67
2023-05-08T06:53:01.130Z,58465.84
2023-05-08T06:54:04.006Z,58439.75
2023-05-08T06:55:06.681Z,58059.48
2023-05-08T06:56:09.551Z,58145.76
2023-05-08T06:57:13.824Z,58258.14
2023-05-08T06:58:16.855Z,58199.94
2023-05-08T06:59:19.509Z,58233.05
2023-05-08T07:00:22.490Z,58175.86
2023-05-08T07:01:25.599Z,58470.86
2023-05-08T07:02:28.891Z,58138.74
2023-05-08T07:03:31.521Z,57689.27
2023-05-08T07:04:34.627Z,57415.39
2023-05-08T07:05:37.271Z,57298.03
2023-05-08T07:06:39.858Z,57160.60
2023-05-08T07:07:43.029Z,56967.01
2023-05-08T07:08:46.093Z,56853.67
2023-05-08T07:09:49.185Z,56915.86
2023-05-08T07:10:52.150Z,56781.45
2023-05-08T07:11:56.048Z,56690.18
2023-05-08T07:12:58.778Z,56615.96
2023-05-08T07:14:01.389Z,57270.95
2023-05-08T07:15:13.956Z,56987.07
2023-05-08T07:16:08.647Z,57806.65
2023-05-08T07:17:11.354Z,57627.07
2023-05-08T07:18:14.108Z,57534.77
2023-05-08T07:19:16.789Z,57806.65
2023-05-08T07:20:19.460Z,58310.31
2023-05-08T07:21:22.132Z,58906.37
2023-05-08T07:22:24.837Z,58719.71
2023-05-08T07:23:27.588Z,58625.39
2023-05-08T07:24:30.244Z,58478.89
2023-05-08T07:25:32.922Z,58968.59
2023-05-08T07:26:35.586Z,58711.69
2023-05-08T07:27:38.148Z,58431.73
2023-05-08T07:28:40.814Z,58329.38
2023-05-08T07:29:43.914Z,58798.99
2023-05-08T07:30:46.462Z,58715.70
2023-05-08T07:31:49.202Z,58227.03
2023-05-08T07:32:51.882Z,58057.47
2023-05-08T07:33:54.482Z,58102.62
2023-05-08T07:34:57.046Z,57949.11
2023-05-08T07:35:59.714Z,57728.39
2023-05-08T07:37:02.379Z,57745.45
2023-05-08T07:38:04.953Z,57264.93
2023-05-08T07:39:07.923Z,57016.16
2023-05-08T07:40:10.591Z,56905.82
2023-05-08T07:41:13.409Z,56915.86
2023-05-08T07:42:16.135Z,56964.00
2023-05-08T07:43:18.822Z,56919.87
2023-05-08T07:44:21.886Z,56765.41
2023-05-08T07:45:24.553Z,56667.11
2023-05-08T07:46:27.283Z,56571.83
2023-05-08T07:47:29.915Z,56418.38
2023-05-08T07:48:32.574Z,56284.00
2023-05-08T07:49:35.445Z,56077.41
2023-05-08T07:50:38.001Z,56083.43
2023-05-08T07:51:40.677Z,56091.45
2023-05-08T07:52:43.246Z,55968.11
2023-05-08T07:53:45.911Z,55839.75
2023-05-08T07:54:48.576Z,55721.43
2023-05-08T07:55:51.144Z,55706.39
2023-05-08T07:56:53.818Z,55731.45
2023-05-08T07:57:56.704Z,55744.49
2023-05-08T07:58:59.577Z,55792.62
2023-05-08T08:00:02.748Z,55841.75
2023-05-08T08:01:05.210Z,55842.76
2023-05-08T08:02:08.232Z,55974.12
2023-05-08T08:03:11.031Z,55900.92
2023-05-08T08:04:15.325Z,55988.16
2023-05-08T08:05:18.254Z,55939.02
2023-05-08T08:06:21.118Z,56072.39
2023-05-08T08:07:24.004Z,56056.35
2023-05-08T08:08:29.432Z,56037.30
2023-05-08T08:09:31.910Z,56002.20
2023-05-08T08:10:34.977Z,56215.80
2023-05-08T08:11:37.748Z,56486.58
2023-05-08T08:12:40.546Z,57202.73
2023-05-08T08:13:43.198Z,58675.56
2023-05-08T08:14:45.658Z,60132.87
2023-05-08T08:15:48.741Z,60919.97
2023-05-08T08:16:51.378Z,64264.84
2023-05-08T08:17:54.010Z,66966.89
2023-05-08T08:18:56.648Z,64138.22
2023-05-08T08:19:59.432Z,63933.24
2023-05-08T08:21:02.092Z,64722.09
2023-05-08T08:22:04.753Z,61425.03
2023-05-08T08:23:07.424Z,60820.57
2023-05-08T08:24:10.198Z,59071.95
2023-05-08T08:25:13.027Z,59051.88
2023-05-08T08:26:15.950Z,58425.70
2023-05-08T08:27:18.926Z,57605.00
2023-05-08T08:28:22.007Z,57435.46
2023-05-08T08:29:24.925Z,56941.93
2023-05-08T08:30:27.766Z,57485.62
2023-05-08T08:31:30.772Z,57378.28
2023-05-08T08:32:33.930Z,57787.59
2023-05-08T08:33:36.896Z,57737.42
2023-05-08T08:34:39.761Z,57496.65
2023-05-08T08:35:42.654Z,57925.03
2023-05-08T08:36:45.822Z,58194.93
2023-05-08T08:37:48.799Z,59371.03
2023-05-08T08:38:51.487Z,58103.62
2023-05-08T08:39:54.131Z,58356.47
2023-05-08T08:40:57.023Z,59056.90
2023-05-08T08:41:59.788Z,59487.46
2023-05-08T08:43:02.668Z,59216.47
2023-05-08T08:44:05.738Z,59319.84
2023-05-08T08:45:08.645Z,59516.56
2023-05-08T08:46:11.921Z,59222.50
2023-05-08T08:47:15.076Z,59918.06
2023-05-08T08:48:18.155Z,60036.51
2023-05-08T08:49:20.727Z,61571.64
2023-05-08T08:50:23.580Z,60634.83
2023-05-08T08:51:26.277Z,59935.12
2023-05-08T08:52:29.472Z,60536.44
2023-05-08T08:53:32.248Z,61535.49
2023-05-08T08:54:34.999Z,62395.18
2023-05-08T08:55:37.873Z,62962.71
2023-05-08T08:56:40.748Z,63165.64
2023-05-08T08:57:43.623Z,64792.43
2023-05-08T08:58:46.308Z,67481.77
2023-05-08T08:59:49.176Z,69044.94
2023-05-08T09:00:52.152Z,72016.02
2023-05-08T09:01:54.942Z,75510.28
2023-05-08T09:02:58.051Z,73274.77
2023-05-08T09:04:00.928Z,72310.03
2023-05-08T09:05:03.948Z,70527.19
2023-05-08T09:06:06.822Z,71778.42
2023-05-08T09:07:09.696Z,73423.84
2023-05-08T09:08:12.823Z,71500.55
2023-05-08T09:09:15.756Z,75386.34
2023-05-08T09:10:18.441Z,75672.53
2023-05-08T09:11:21.297Z,75670.52
2023-05-08T09:12:24.277Z,77238.90
2023-05-08T09:13:27.291Z,74138.00
2023-05-08T09:14:30.133Z,74153.11
2023-05-08T09:15:33.414Z,73314.05
2023-05-08T09:16:36.330Z,74979.25
2023-05-08T09:17:38.986Z,79021.72
2023-05-08T09:18:41.731Z,81299.79
2023-05-08T09:19:44.295Z,84633.48
2023-05-08T09:20:47.064Z,85197.11
2023-05-08T09:21:49.736Z,87791.02
2023-05-08T09:22:52.402Z,86538.81
2023-05-08T09:23:55.077Z,85393.08
2023-05-08T09:24:57.746Z,85979.05
2023-05-08T09:26:00.424Z,86148.78
2023-05-08T09:27:03.293Z,87391.77
2023-05-08T09:28:06.265Z,88561.32
2023-05-08T09:29:09.359Z,88912.16
2023-05-08T09:30:12.226Z,89464.24
2023-05-08T09:31:15.159Z,91193.81
2023-05-08T09:32:18.057Z,93028.37
2023-05-08T09:33:20.640Z,95367.05
2023-05-08T09:34:23.631Z,97571.30
2023-05-08T09:35:26.503Z,99127.95
2023-05-08T09:36:29.279Z,100036.29
2023-05-08T09:37:32.249Z,101074.63
2023-05-08T09:38:35.142Z,101723.73
2023-05-08T09:39:38.196Z,103281.98
2023-05-08T09:40:40.980Z,104061.34
2023-05-08T09:41:43.639Z,105490.55
2023-05-08T09:42:46.403Z,105880.41
2023-05-08T09:43:49.182Z,106400.30
2023-05-08T09:44:52.084Z,107050.25
2023-05-08T09:45:54.727Z,107700.30
2023-05-08T09:46:57.293Z,108090.38
2023-05-08T09:48:00.031Z,107960.35
2023-05-08T09:49:02.646Z,108610.55
2023-05-08T09:50:05.369Z,109260.86
2023-05-08T09:51:07.977Z,109130.78
2023-05-08T09:52:10.797Z,109390.93
2023-05-08T09:53:13.526Z,110171.45
2023-05-08T09:54:16.083Z,110822.01
2023-05-08T09:55:18.852Z,111342.52
2023-05-08T09:56:21.425Z,111342.52
2023-05-08T09:57:24.092Z,111602.80
2023-05-08T09:58:26.912Z,111863.11
2023-05-08T09:59:31.802Z,112123.42
2023-05-08T10:00:34.355Z,111863.11
2023-05-08T10:01:37.305Z,111863.11
2023-05-08T10:02:40.240Z,112123.42
2023-05-08T10:03:43.113Z,111993.27
2023-05-08T10:04:46.091Z,111863.11
2023-05-08T10:05:49.241Z,111993.27
2023-05-08T10:06:53.621Z,111863.11
2023-05-08T10:07:56.733Z,111993.27
2023-05-08T10:08:59.621Z,112253.59
2023-05-08T10:10:02.197Z,112383.76
2023-05-08T10:11:05.251Z,112644.11
2023-05-08T10:12:07.928Z,112904.47
2023-05-08T10:13:10.505Z,113034.66
2023-05-08T10:14:13.161Z,112904.47
2023-05-08T10:15:15.836Z,112774.28
2023-05-08T10:16:18.553Z,113034.66
2023-05-08T10:17:21.266Z,113034.66
2023-05-08T10:18:23.958Z,113295.05
2023-05-08T10:19:26.616Z,113425.25
2023-05-08T10:20:29.396Z,113685.67
2023-05-08T10:21:32.156Z,113685.67
2023-05-08T10:22:34.833Z,113815.89
2023-05-08T10:23:37.394Z,113815.89
2023-05-08T10:24:40.273Z,113946.10
2023-05-08T10:25:42.947Z,114076.33
2023-05-08T10:26:57.186Z,114076.33
2023-05-08T10:27:49.817Z,114206.55
2023-05-08T10:28:52.380Z,114336.78
2023-05-08T10:29:55.364Z,114467.02
2023-05-08T10:30:58.165Z,114727.50
2023-05-08T10:32:00.821Z,114988.00
2023-05-08T10:33:03.802Z,115118.26
2023-05-08T10:34:06.655Z,115378.78
2023-05-08T10:35:10.262Z,115509.05
2023-05-08T10:36:13.121Z,115509.05
2023-05-08T10:37:16.117Z,115509.05
2023-05-08T10:38:19.080Z,115639.32
2023-05-08T10:39:21.957Z,115639.32
2023-05-08T10:40:24.948Z,115769.59
2023-05-08T10:41:27.930Z,115769.59
2023-05-08T10:42:31.816Z,115769.59
2023-05-08T10:43:34.678Z,115639.32
2023-05-08T10:44:37.559Z,115639.32
2023-05-08T10:45:40.902Z,115769.59
2023-05-08T10:46:43.602Z,115899.87
2023-05-08T10:47:46.844Z,115899.87
2023-05-08T10:48:49.875Z,115769.59
2023-05-08T10:49:53.485Z,115639.32
2023-05-08T10:50:57.626Z,115509.05
2023-05-08T10:52:00.459Z,115509.05
2023-05-08T10:53:03.426Z,115509.05
2023-05-08T10:54:06.196Z,115378.78
2023-05-08T10:55:08.867Z,115378.78
2023-05-08T10:56:12.249Z,115509.05
2023-05-08T10:57:15.429Z,115509.05
2023-05-08T10:58:18.404Z,115769.59
2023-05-08T10:59:21.427Z,115639.32
2023-05-08T11:00:24.469Z,115639.32
2023-05-08T11:01:27.861Z,115769.59
2023-05-08T11:02:30.757Z,115899.87
2023-05-08T11:03:33.926Z,116030.16
2023-05-08T11:04:36.704Z,116290.75
2023-05-08T11:05:39.449Z,116290.75
2023-05-08T11:06:41.832Z,116421.05
2023-05-08T11:07:44.577Z,116421.05
2023-05-08T11:08:47.249Z,116290.75
2023-05-08T11:09:49.920Z,116290.75
2023-05-08T11:10:52.694Z,116421.05
2023-05-08T11:11:55.460Z,116421.05
2023-05-08T11:12:58.155Z,116421.05
2023-05-08T11:14:09.214Z,116421.05
2023-05-08T11:15:11.878Z,116681.65
2023-05-08T11:16:14.587Z,116681.65
2023-05-08T11:17:17.216Z,116681.65
2023-05-08T11:18:19.794Z,116681.65
2023-05-08T11:19:22.441Z,116681.65
2023-05-08T11:20:25.232Z,116681.65
2023-05-08T11:21:28.090Z,116681.65
2023-05-08T11:22:30.797Z,116811.96
2023-05-08T11:23:33.535Z,116681.65
2023-05-08T11:24:36.424Z,116811.96
2023-05-08T11:25:39.286Z,116811.96
2023-05-08T11:26:42.178Z,116942.28
2023-05-08T11:27:45.141Z,116942.28
2023-05-08T11:28:47.908Z,116942.28
2023-05-08T11:29:51.008Z,116942.28
2023-05-08T11:30:53.873Z,116942.28
2023-05-08T11:31:56.974Z,116942.28
2023-05-08T11:33:00.005Z,116942.28
2023-05-08T11:34:02.896Z,116943.30
2023-05-08T11:35:05.977Z,116943.30
2023-05-08T11:36:08.951Z,116943.30
2023-05-08T11:37:11.938Z,116943.30
2023-05-08T11:38:14.702Z,116943.30
2023-05-08T11:39:17.577Z,116943.30
2023-05-08T11:40:20.787Z,116943.30
2023-05-08T11:41:23.948Z,116943.30
2023-05-08T11:42:26.853Z,116943.30
2023-05-08T11:43:29.793Z,116943.30
2023-05-08T11:44:32.692Z,116943.30
2023-05-08T11:45:35.965Z,116943.30
2023-05-08T11:46:38.783Z,116943.30
2023-05-08T11:47:41.601Z,116943.30
2023-05-08T11:48:44.578Z,116943.30
2023-05-08T11:49:47.450Z,116943.30
2023-05-08T11:50:50.527Z,116943.30
2023-05-08T11:51:53.405Z,116943.30
2023-05-08T11:52:56.171Z,116943.30
2023-05-08T11:53:59.051Z,116943.30
2023-05-08T11:55:02.244Z,116943.30
2023-05-08T11:56:05.616Z,116943.30
2023-05-08T11:57:08.595Z,116943.30
2023-05-08T11:58:11.474Z,116943.30
2023-05-08T11:59:14.370Z,116943.30
2023-05-08T12:00:17.819Z,116943.30
2023-05-08T12:01:20.911Z,116943.30
2023-05-08T12:02:23.754Z,116943.30
2023-05-08T12:03:26.780Z,116943.30
2023-05-08T12:04:29.858Z,116943.30
2023-05-08T12:05:32.932Z,116943.30
2023-05-08T12:06:36.316Z,116943.30
2023-05-08T12:07:40.207Z,116943.30
2023-05-08T12:08:43.600Z,116943.30
2023-05-08T12:09:46.383Z,116943.30
2023-05-08T12:10:49.144Z,116943.30
2023-05-08T12:11:51.919Z,116943.30
2023-05-08T12:12:54.550Z,116943.30
2023-05-08T12:13:57.154Z,116943.30
2023-05-08T12:14:59.720Z,116943.30
2023-05-08T12:16:02.489Z,116943.30
2023-05-08T12:17:06.568Z,116943.30
2023-05-08T12:18:09.292Z,116943.30
2023-05-08T12:19:11.950Z,116943.30
2023-05-08T12:20:15.405Z,116943.30
2023-05-08T12:21:18.707Z,116943.30
2023-05-08T12:22:21.696Z,116943.30
2023-05-08T12:23:24.452Z,116943.30
2023-05-08T12:24:27.241Z,116943.30
2023-05-08T12:25:30.317Z,116943.30
2023-05-08T12:26:33.081Z,116943.30